Airfield :
LOGIN :

Register | Disclaimer

   EN    FR    IT 

 










Legend :    VFR   Marginal VFR   IFR   Intensive IFR   Very Intensive IFR
Visi :
Ceiling :
>= 8 km
>= 3000ft
5 to 8 km
1000 to 3000 ft
1500m to 5 km
500 to 1000 ft
800 to 1500m
200 to 500 ft
< 800m
< 200 ft
Symbols :   Thunderstorms  Fog  Heavy snow  Heavy precipitations  Wind > 20 kt
SIGMETs :     Misc.  Thunderstorms  Icing  Turbulence  Mountain Waves  Volcanic Ashes






- Airport Elevation : 1470 ft


LSMD - Dubendorf Military

CURRENT METAR :
  • 190250Z AUTO 13003KT 9999NDV NCD 16/15 Q1014 RMK

EXPIRED METARs :
  • 190220Z AUTO VRB01KT 9999NDV NCD 17/15 Q1014 RMK
  • 190150Z AUTO 00000KT 9999NDV NCD 17/15 Q1014 RMK
  • 190120Z AUTO VRB02KT 9999NDV FEW120 17/15 Q1014 RMK
  • 190050Z AUTO 14003KT 9999NDV FEW120 17/15 Q1014 RMK
  • 190020Z AUTO VRB02KT 9999NDV SCT110 17/16 Q1014 RMK
  • 182350Z AUTO VRB01KT 9999NDV SCT120 18/15 Q1014 RMK
  • 182320Z AUTO VRB02KT 9999NDV NCD 18/15 Q1014 RMK
  • 182250Z AUTO 12002KT 9999NDV NCD 18/16 Q1014 RMK
  • 182220Z AUTO 00000KT 9999NDV NCD 19/16 Q1013 RMK

Expired Forecast.



MET'MAP, your aeronautical weather chart ! - Copyright ORBIFLY December 2007 - Disclaimer

ORBIFLY MET'MAP TEAM :

Programming & Development : Alexandra Zaïnal
Original concept : Baudouin d'Aumeries
Technical & hardware support : Manuel Goepfert
Assistance : Marc-Olivier Méhu




SOURCES & CREDITS :

   NOAA